Time;durP1;ratioP1;P1;durP2;ratioP2;P2;SDS_P1;SDS_P2;PMS_P1;PMS_P2;Temp;Humidity;BMP_temperature;BMP_pressure;BME280_temperature;BME280_humidity;BME280_pressure;Samples;Min_cycle;Max_cycle;Signal;HPM_P1;HPM_P2
2022/09/06 00:00:07;;;;;;;3.87;1.70;;;;;;;17.69;57.17;102163.66;4985674;28;20199;-75
2022/09/06 00:02:37;;;;;;;3.90;1.60;;;;;;;17.62;57.33;102154.09;4999526;28;20285;-74
2022/09/06 00:05:04;;;;;;;2.67;1.67;;;;;;;17.62;57.47;102164.47;4984548;28;20188;-75
2022/09/06 00:07:30;;;;;;;3.30;1.50;;;;;;;17.58;57.99;102162.69;4987607;28;20191;-75
2022/09/06 00:09:55;;;;;;;3.40;1.40;;;;;;;17.59;57.41;102150.59;4992815;28;20197;-75
2022/09/06 00:12:22;;;;;;;4.60;1.80;;;;;;;17.57;57.40;102150.59;4991011;28;20362;-75
2022/09/06 00:14:47;;;;;;;2.57;1.50;;;;;;;17.57;57.64;102150.59;4987623;28;20207;-75
2022/09/06 00:17:13;;;;;;;4.17;1.73;;;;;;;17.54;57.61;102149.69;4999964;28;20212;-75
2022/09/06 00:19:38;;;;;;;3.33;1.77;;;;;;;17.54;57.70;102147.94;4988995;28;20191;-74
2022/09/06 00:22:04;;;;;;;1.63;1.53;;;;;;;17.54;57.55;102145.34;4989344;28;20219;-74
2022/09/06 00:24:29;;;;;;;4.13;1.80;;;;;;;17.53;57.29;102146.22;4989817;28;20191;-76
2022/09/06 00:26:54;;;;;;;3.00;1.50;;;;;;;17.52;57.11;102141.00;5002624;28;20188;-76
2022/09/06 00:29:20;;;;;;;2.50;1.80;;;;;;;17.48;57.01;102141.81;5000888;28;20231;-76
2022/09/06 00:31:45;;;;;;;2.53;1.90;;;;;;;17.47;56.50;102151.31;5001562;28;20310;-75
2022/09/06 00:34:11;;;;;;;2.33;1.83;;;;;;;17.47;56.74;102138.38;4993451;28;20255;-73
2022/09/06 00:36:36;;;;;;;2.10;1.70;;;;;;;17.42;57.03;102141.75;4988561;28;20306;-75
2022/09/06 00:39:02;;;;;;;2.87;1.70;;;;;;;17.42;57.20;102146.94;4992356;28;20235;-75
2022/09/06 00:41:27;;;;;;;3.73;2.03;;;;;;;17.40;56.49;102136.53;5003627;28;20219;-75
2022/09/06 00:43:53;;;;;;;4.27;1.77;;;;;;;17.43;56.31;102140.91;4990621;28;20687;-75
2022/09/06 00:46:26;;;;;;;6.90;2.10;;;;;;;17.41;55.98;102138.28;5006163;28;20191;-74
2022/09/06 00:48:56;;;;;;;4.17;2.07;;;;;;;17.42;56.14;102134.88;5005633;28;20216;-74
2022/09/06 00:51:24;;;;;;;3.90;1.70;;;;;;;17.40;56.83;102139.13;4990032;28;20694;-73
2022/09/06 00:53:50;;;;;;;3.73;1.90;;;;;;;17.38;55.87;102129.56;4991038;28;20231;-75
2022/09/06 00:56:16;;;;;;;2.03;1.70;;;;;;;17.39;56.23;102134.81;5004645;28;20223;-75
2022/09/06 00:58:41;;;;;;;4.60;1.67;;;;;;;17.37;56.17;102130.44;4991123;28;20195;-76
2022/09/06 01:01:07;;;;;;;4.83;1.97;;;;;;;17.35;56.55;102133.00;4992197;28;20243;-76
2022/09/06 01:03:34;;;;;;;4.13;1.90;;;;;;;17.37;56.00;102125.25;4991838;28;20191;-75
2022/09/06 01:06:16;;;;;;;3.27;1.80;;;;;;;17.36;56.04;102124.38;4991807;28;20195;-75
2022/09/06 01:08:53;;;;;;;4.27;1.50;;;;;;;17.33;55.90;102123.47;4992579;28;20219;-75
2022/09/06 01:11:58;;;;;;;3.67;2.03;;;;;;;17.28;55.82;102125.13;4991238;28;20339;-73
2022/09/06 01:14:40;;;;;;;3.07;1.57;;;;;;;17.31;55.50;102133.81;4992425;28;20290;-75
2022/09/06 01:17:24;;;;;;;3.87;1.67;;;;;;;17.28;55.78;102122.56;5003390;28;20295;-73
2022/09/06 01:20:20;;;;;;;4.33;1.90;;;;;;;17.25;55.52;102119.91;5004097;28;20192;-74
2022/09/06 01:23:19;;;;;;;5.47;1.90;;;;;;;17.24;55.22;102121.66;4992850;28;20234;-74
2022/09/06 01:26:42;;;;;;;4.90;1.80;;;;;;;17.21;55.04;102112.94;4962663;28;20724;-74
2022/09/06 01:29:37;;;;;;;2.63;1.70;;;;;;;17.19;54.88;102115.53;4969299;28;20214;-74
2022/09/06 01:32:11;;;;;;;3.03;1.93;;;;;;;17.17;54.75;102113.78;4987357;28;20297;-73
2022/09/06 01:34:41;;;;;;;4.63;1.97;;;;;;;17.17;54.58;102121.56;4992293;28;20191;-73
2022/09/06 01:37:16;;;;;;;5.57;1.97;;;;;;;17.17;54.51;102111.19;4992281;28;20211;-74
2022/09/06 01:39:42;;;;;;;4.70;2.00;;;;;;;17.18;54.04;102116.38;4996844;28;20195;-74
2022/09/06 01:42:12;;;;;;;2.27;1.77;;;;;;;17.18;54.37;102113.78;4993825;28;20211;-74
2022/09/06 01:44:43;;;;;;;2.63;1.67;;;;;;;17.21;53.71;102112.94;4997913;28;20269;-73
2022/09/06 01:47:27;;;;;;;3.83;1.90;;;;;;;17.17;53.74;102118.97;4992054;28;20188;-74
2022/09/06 01:49:53;;;;;;;3.60;2.13;;;;;;;17.19;53.46;102123.31;4991583;28;20219;-74
2022/09/06 01:52:55;;;;;;;4.40;1.93;;;;;;;17.17;53.41;102121.56;4992603;28;20732;-74
2022/09/06 01:55:23;;;;;;;2.90;1.70;;;;;;;17.14;53.28;102118.91;4991941;28;20211;-74
2022/09/06 01:58:25;;;;;;;5.03;2.00;;;;;;;17.12;53.36;102113.72;5006956;28;20192;-74
2022/09/06 02:01:04;;;;;;;2.97;2.03;;;;;;;17.17;52.83;102114.63;4990449;28;20523;-74
2022/09/06 02:03:36;;;;;;;3.23;1.70;;;;;;;17.19;52.46;102112.97;4991835;28;20551;-74
2022/09/06 02:06:27;;;;;;;3.87;1.80;;;;;;;17.16;52.80;102123.25;4991254;28;20270;-74
2022/09/06 02:09:01;;;;;;;3.20;1.60;;;;;;;17.15;52.62;102121.53;4990566;28;20572;-74
2022/09/06 02:11:32;;;;;;;4.73;1.73;;;;;;;17.13;52.44;102127.53;4991235;28;20211;-74
2022/09/06 02:14:05;;;;;;;2.70;1.90;;;;;;;17.12;52.25;102126.66;4992128;28;20192;-75
2022/09/06 02:16:34;;;;;;;4.87;1.80;;;;;;;17.09;52.46;102133.50;4991814;28;20215;-72
2022/09/06 02:19:07;;;;;;;2.97;1.93;;;;;;;17.09;51.91;102118.84;4991414;28;20227;-74
2022/09/06 02:21:37;;;;;;;4.17;2.00;;;;;;;17.07;52.39;102112.78;4991304;28;20314;-74
2022/09/06 02:24:07;;;;;;;3.50;1.80;;;;;;;17.06;52.20;102113.63;5006867;28;20191;-73
2022/09/06 02:26:40;;;;;;;4.53;1.70;;;;;;;17.02;52.21;102109.25;4991190;28;20195;-74
2022/09/06 02:29:05;;;;;;;3.13;1.90;;;;;;;17.03;52.03;102118.75;4990849;28;20279;-73
2022/09/06 02:31:36;;;;;;;3.63;2.00;;;;;;;17.05;51.72;102113.63;4989822;28;20695;-73
2022/09/06 02:34:03;;;;;;;2.00;1.60;;;;;;;17.04;51.21;102104.13;4990074;28;20658;-74
2022/09/06 02:36:30;;;;;;;2.70;1.80;;;;;;;17.02;51.37;102105.78;5004625;28;20246;-74
2022/09/06 02:38:58;;;;;;;2.43;1.60;;;;;;;17.01;51.30;102101.47;4991368;28;20600;-74
2022/09/06 02:41:25;;;;;;;2.60;1.97;;;;;;;17.01;50.94;102106.66;4990335;28;20234;-74
2022/09/06 02:43:50;;;;;;;2.90;1.53;;;;;;;16.97;51.59;102104.88;4991507;28;20192;-73
2022/09/06 02:46:16;;;;;;;3.97;1.80;;;;;;;16.97;51.15;102099.69;4988950;28;20191;-75
2022/09/06 02:48:41;;;;;;;4.57;1.67;;;;;;;16.94;51.26;102115.19;4989735;28;20205;-74
2022/09/06 02:51:08;;;;;;;1.90;1.70;;;;;;;16.89;51.43;102099.59;4990033;28;20242;-75
2022/09/06 02:53:34;;;;;;;3.70;1.80;;;;;;;16.90;51.00;102105.66;4990647;28;20219;-74
2022/09/06 02:56:00;;;;;;;3.77;1.93;;;;;;;16.89;51.41;102101.28;4995590;28;20230;-74
2022/09/06 02:58:26;;;;;;;3.97;1.80;;;;;;;16.87;51.26;102103.00;4988423;28;20191;-74
2022/09/06 03:00:51;;;;;;;2.93;1.63;;;;;;;16.83;51.06;102103.81;4988615;28;20568;-74
2022/09/06 03:03:18;;;;;;;4.57;1.80;;;;;;;16.81;51.37;102092.56;4989455;28;20198;-74
2022/09/06 03:05:51;;;;;;;2.80;1.63;;;;;;;16.79;51.15;102099.44;4986471;28;20275;-74
2022/09/06 03:08:18;;;;;;;3.90;1.50;;;;;;;16.78;50.86;102088.22;4987232;28;20184;-74
2022/09/06 03:10:51;;;;;;;2.77;1.63;;;;;;;16.74;50.66;102094.19;4985310;28;20211;-73
2022/09/06 03:13:17;;;;;;;2.67;1.60;;;;;;;16.75;50.92;102095.94;4986602;28;20192;-74
2022/09/06 03:15:43;;;;;;;1.70;1.60;;;;;;;16.74;50.60;102098.50;4987609;28;20670;-73
2022/09/06 03:18:09;;;;;;;4.40;1.97;;;;;;;16.73;50.09;102089.00;5001720;28;20267;-74
2022/09/06 03:20:34;;;;;;;1.97;1.50;;;;;;;16.70;50.76;102094.13;4985386;28;20195;-74
2022/09/06 03:22:59;;;;;;;3.73;1.70;;;;;;;16.69;50.65;102092.38;4984767;28;20302;-73
2022/09/06 03:25:25;;;;;;;3.47;1.40;;;;;;;16.67;50.64;102079.44;4988761;28;20184;-72
2022/09/06 03:27:51;;;;;;;2.53;1.70;;;;;;;16.64;50.26;102078.53;4982385;28;20191;-73
2022/09/06 03:30:17;;;;;;;4.03;2.10;;;;;;;16.64;49.91;102078.53;4987770;28;20207;-74
2022/09/06 03:32:42;;;;;;;3.13;1.37;;;;;;;16.61;50.06;102075.88;4980694;28;20251;-74
2022/09/06 03:35:08;;;;;;;3.40;1.60;;;;;;;16.62;50.05;102080.22;4996584;28;20279;-74
2022/09/06 03:37:34;;;;;;;2.27;1.50;;;;;;;16.59;50.29;102086.22;4998620;28;20603;-73
2022/09/06 03:39:59;;;;;;;6.33;1.80;;;;;;;16.59;50.10;102080.19;5000596;28;20207;-73
2022/09/06 03:42:25;;;;;;;2.80;1.70;;;;;;;16.57;49.85;102084.47;5001489;28;20203;-74
2022/09/06 03:44:52;;;;;;;4.30;1.67;;;;;;;16.55;49.98;102083.56;4984652;28;20238;-73
2022/09/06 03:47:18;;;;;;;3.83;1.30;;;;;;;16.51;49.95;102099.88;5001181;28;20295;-73
2022/09/06 03:49:44;;;;;;;2.63;1.30;;;;;;;16.49;49.69;102097.25;4998087;28;20270;-74
2022/09/06 03:52:09;;;;;;;3.33;1.33;;;;;;;16.49;49.64;102099.00;5000082;28;20318;-74
2022/09/06 03:54:35;;;;;;;2.70;1.20;;;;;;;16.46;50.22;102097.22;5000661;28;20191;-73
2022/09/06 03:57:00;;;;;;;2.57;1.40;;;;;;;16.44;49.49;102095.47;4987839;28;20227;-74
2022/09/06 03:59:26;;;;;;;3.47;1.27;;;;;;;16.45;49.65;102089.44;4985039;28;20276;-73
2022/09/06 04:01:51;;;;;;;5.17;1.70;;;;;;;16.42;49.52;102091.97;4987130;28;20722;-73
2022/09/06 04:04:16;;;;;;;2.20;1.40;;;;;;;16.40;49.59;102091.94;4987740;28;20725;-76
2022/09/06 04:06:42;;;;;;;3.17;1.33;;;;;;;16.37;50.15;102083.25;4986398;28;20184;-76
2022/09/06 04:09:07;;;;;;;4.37;1.77;;;;;;;16.33;49.36;102079.75;4983592;28;20211;-75
2022/09/06 04:11:33;;;;;;;3.07;1.50;;;;;;;16.29;49.54;102083.13;5002940;28;20219;-75
2022/09/06 04:13:58;;;;;;;2.50;1.23;;;;;;;16.30;49.64;102078.84;4990103;28;20215;-76
2022/09/06 04:16:24;;;;;;;2.70;1.27;;;;;;;16.27;49.80;102086.53;4994203;28;20222;-75
2022/09/06 04:18:49;;;;;;;2.47;1.27;;;;;;;16.24;50.09;102081.28;4989785;28;20199;-75
2022/09/06 04:21:15;;;;;;;3.23;1.43;;;;;;;16.24;49.60;102081.28;4986422;28;20232;-74
2022/09/06 04:23:40;;;;;;;3.40;1.30;;;;;;;16.23;50.06;102076.97;4989013;28;20187;-75
2022/09/06 04:26:06;;;;;;;4.53;1.10;;;;;;;16.16;50.13;102073.41;4988665;28;20219;-75
2022/09/06 04:28:31;;;;;;;2.53;1.10;;;;;;;16.16;50.06;102075.16;4989574;28;20207;-74
2022/09/06 04:31:01;;;;;;;3.10;1.10;;;;;;;16.14;50.11;102076.81;4989207;28;20199;-75
2022/09/06 04:33:28;;;;;;;4.87;1.57;;;;;;;16.15;50.35;102083.72;4988504;28;20215;-75
2022/09/06 04:35:55;;;;;;;4.40;1.53;;;;;;;16.12;49.81;102075.94;4988670;28;20215;-73
2022/09/06 04:38:22;;;;;;;1.77;1.57;;;;;;;16.08;50.32;102080.19;5003870;28;20274;-75
2022/09/06 04:40:48;;;;;;;4.77;1.47;;;;;;;16.03;50.47;102073.19;4990204;28;20199;-73
2022/09/06 04:43:14;;;;;;;1.50;1.00;;;;;;;16.04;50.16;102077.53;4989625;28;20258;-73
2022/09/06 04:45:40;;;;;;;1.73;1.00;;;;;;;16.03;50.10;102074.06;4989956;28;20184;-75
2022/09/06 04:48:05;;;;;;;3.43;1.33;;;;;;;16.01;50.63;102070.59;5002256;28;20203;-73
2022/09/06 04:50:31;;;;;;;2.13;1.00;;;;;;;16.00;50.24;102067.97;4990356;28;20200;-74
2022/09/06 04:53:04;;;;;;;3.07;1.30;;;;;;;16.00;50.76;102066.28;4990597;28;20235;-73
2022/09/06 04:55:30;;;;;;;2.47;1.20;;;;;;;15.99;49.96;102076.56;5006572;28;20191;-74
2022/09/06 04:57:58;;;;;;;7.00;1.17;;;;;;;15.97;50.35;102066.22;4993582;28;20211;-75
2022/09/06 05:00:25;;;;;;;4.37;1.27;;;;;;;15.96;50.30;102072.22;5008083;28;20188;-74
2022/09/06 05:02:51;;;;;;;3.00;1.37;;;;;;;15.97;50.31;102067.94;4992111;28;20709;-73
2022/09/06 05:05:16;;;;;;;2.47;1.10;;;;;;;15.97;51.02;102061.03;4992401;28;20180;-73
2022/09/06 05:07:42;;;;;;;2.93;1.10;;;;;;;15.99;50.53;102069.72;4993415;28;20277;-74
2022/09/06 05:10:08;;;;;;;6.30;1.50;;;;;;;15.97;50.66;102065.34;4975830;28;20254;-74
2022/09/06 05:12:33;;;;;;;1.57;1.10;;;;;;;15.96;50.83;102063.59;4991773;28;20350;-73
2022/09/06 05:14:59;;;;;;;2.90;1.17;;;;;;;15.98;50.13;102075.69;4991758;28;20202;-74
2022/09/06 05:17:25;;;;;;;2.60;1.20;;;;;;;15.99;50.10;102074.00;5007268;28;20248;-74
2022/09/06 05:19:50;;;;;;;3.50;1.30;;;;;;;15.99;50.50;102074.88;4993250;28;20794;-74
2022/09/06 05:22:16;;;;;;;3.50;1.10;;;;;;;16.03;50.08;102081.81;4990724;28;20215;-74
2022/09/06 05:24:41;;;;;;;4.60;1.23;;;;;;;15.98;50.97;102083.44;4992298;28;20194;-74
2022/09/06 05:27:06;;;;;;;3.77;1.30;;;;;;;15.99;50.43;102087.78;4999379;28;20188;-74
2022/09/06 05:29:32;;;;;;;1.83;1.10;;;;;;;16.01;50.54;102088.69;5008080;28;20183;-74
2022/09/06 05:31:58;;;;;;;1.80;1.10;;;;;;;16.03;50.62;102091.28;4989837;28;20245;-75
2022/09/06 05:34:23;;;;;;;2.57;1.30;;;;;;;16.05;50.42;102095.66;4992799;28;20632;-73
2022/09/06 05:36:49;;;;;;;1.73;1.30;;;;;;;16.07;50.62;102093.09;4994593;28;20226;-73
2022/09/06 05:39:14;;;;;;;4.70;1.40;;;;;;;16.08;50.18;102089.66;4994539;28;20203;-74
2022/09/06 05:41:40;;;;;;;2.43;1.00;;;;;;;16.06;50.16;102089.63;5007638;28;20211;-74
2022/09/06 05:44:05;;;;;;;4.27;1.23;;;;;;;16.10;50.31;102098.28;5011829;28;20180;-73
2022/09/06 05:46:31;;;;;;;5.00;1.33;;;;;;;16.07;50.16;102095.69;5008647;28;20689;-75
2022/09/06 05:49:06;;;;;;;1.63;1.20;;;;;;;16.09;50.35;102097.44;4992656;28;20234;-75
2022/09/06 05:51:32;;;;;;;1.63;1.13;;;;;;;16.15;50.38;102078.56;4994268;28;20214;-74
2022/09/06 05:53:58;;;;;;;2.70;1.03;;;;;;;16.21;50.48;102076.09;5010668;28;20201;-75
2022/09/06 05:56:24;;;;;;;3.73;1.13;;;;;;;16.21;50.17;102074.38;4999127;28;20214;-74
2022/09/06 05:58:49;;;;;;;4.60;1.13;;;;;;;16.27;49.89;102076.19;5007781;28;22033;-74
2022/09/06 06:01:15;;;;;;;3.33;1.10;;;;;;;16.25;50.18;102077.91;5009130;28;20211;-74
2022/09/06 06:03:42;;;;;;;2.03;1.20;;;;;;;16.30;51.06;102077.09;5005929;28;20191;-72
2022/09/06 06:06:07;;;;;;;2.23;1.10;;;;;;;16.26;50.30;102067.53;5009220;28;20210;-74
2022/09/06 06:08:34;;;;;;;3.23;1.10;;;;;;;16.34;50.26;102065.13;5009234;28;20187;-74
2022/09/06 06:11:00;;;;;;;1.87;1.20;;;;;;;16.34;49.81;102068.53;4993741;28;20194;-76
2022/09/06 06:13:28;;;;;;;1.83;0.90;;;;;;;16.38;50.27;102074.63;5011377;28;20189;-75
2022/09/06 06:15:55;;;;;;;2.27;1.03;;;;;;;16.37;49.75;102081.53;5009806;28;20245;-75
2022/09/06 06:18:20;;;;;;;1.10;1.00;;;;;;;16.45;49.60;102072.22;5008029;28;20210;-75
2022/09/06 06:20:45;;;;;;;4.47;1.33;;;;;;;16.47;49.53;102067.03;5007672;28;20671;-73
2022/09/06 06:23:13;;;;;;;4.57;1.27;;;;;;;16.51;49.21;102068.84;5008113;28;20292;-75
2022/09/06 06:25:39;;;;;;;2.80;1.23;;;;;;;16.60;49.83;102068.97;5005821;28;20682;-75
2022/09/06 06:28:04;;;;;;;2.63;1.20;;;;;;;16.64;49.55;102070.75;5007639;28;20187;-74
2022/09/06 06:30:29;;;;;;;3.40;1.13;;;;;;;16.67;49.24;102078.56;5007253;28;20222;-74
2022/09/06 06:32:57;;;;;;;2.40;1.30;;;;;;;16.65;49.52;102088.00;4993092;28;20211;-75
2022/09/06 06:35:23;;;;;;;5.03;1.20;;;;;;;16.76;49.72;102078.72;5008576;28;20658;-74
2022/09/06 06:37:49;;;;;;;3.47;1.20;;;;;;;16.83;49.49;102081.41;4992482;28;20238;-75
2022/09/06 06:40:14;;;;;;;2.30;0.77;;;;;;;16.86;49.21;102070.22;5005839;28;20211;-75
2022/09/06 06:42:40;;;;;;;3.37;1.30;;;;;;;17.02;49.02;102066.97;5006090;28;20222;-72
2022/09/06 06:45:06;;;;;;;3.87;1.17;;;;;;;17.10;48.96;102065.34;5005643;28;20215;-74
2022/09/06 06:47:31;;;;;;;1.97;1.20;;;;;;;17.10;49.02;102065.34;5010023;28;20191;-77
2022/09/06 06:49:57;;;;;;;4.27;1.30;;;;;;;17.15;49.09;102074.03;5006820;28;20206;-74
2022/09/06 06:52:23;;;;;;;6.00;1.37;;;;;;;17.18;48.80;102066.34;5009365;28;20211;-77
2022/09/06 06:54:48;;;;;;;4.33;1.00;;;;;;;17.13;49.27;102068.00;4988431;28;20221;-73
2022/09/06 06:57:14;;;;;;;2.43;1.10;;;;;;;17.17;48.55;102065.44;4992199;28;20226;-73
2022/09/06 06:59:40;;;;;;;3.70;1.47;;;;;;;17.22;48.85;102047.41;5004818;28;20195;-74
2022/09/06 07:02:05;;;;;;;2.53;1.10;;;;;;;17.08;48.71;102044.63;4990285;28;20226;-73
2022/09/06 07:04:31;;;;;;;4.47;1.17;;;;;;;17.19;48.92;102042.16;5008034;28;20662;-71
2022/09/06 07:06:57;;;;;;;3.13;1.20;;;;;;;17.25;49.53;102030.16;5008493;28;20187;-72
2022/09/06 07:09:22;;;;;;;1.87;0.90;;;;;;;17.28;49.36;102042.28;5007271;28;20226;-72
2022/09/06 07:11:48;;;;;;;5.00;1.27;;;;;;;17.33;49.43;102050.97;5003614;28;20207;-75
2022/09/06 07:14:17;;;;;;;1.80;0.97;;;;;;;17.35;49.81;102041.47;5008670;28;20600;-73
2022/09/06 07:16:43;;;;;;;5.37;1.20;;;;;;;17.18;49.36;102049.06;5006155;28;20226;-73
2022/09/06 07:19:08;;;;;;;1.90;1.20;;;;;;;17.24;49.30;102043.97;4987295;28;20227;-75
2022/09/06 07:21:34;;;;;;;4.33;1.40;;;;;;;17.30;49.11;102053.50;5007523;28;20269;-74
2022/09/06 07:24:00;;;;;;;2.37;1.33;;;;;;;17.34;49.67;102061.34;5009496;28;20214;-74
2022/09/06 07:26:29;;;;;;;3.43;1.30;;;;;;;17.34;49.23;102053.56;5009546;28;20550;-72
2022/09/06 07:28:57;;;;;;;1.20;0.90;;;;;;;17.31;49.29;102058.72;4998613;28;20657;-74
2022/09/06 07:31:23;;;;;;;4.07;1.30;;;;;;;17.33;49.58;102043.19;4995454;28;20709;-75
2022/09/06 07:33:49;;;;;;;3.37;1.30;;;;;;;17.47;50.58;102047.72;4999041;28;20245;-74
2022/09/06 07:36:14;;;;;;;2.40;1.07;;;;;;;17.52;50.16;102055.53;5007925;28;20206;-74
2022/09/06 07:38:40;;;;;;;3.70;1.20;;;;;;;17.58;49.82;102050.41;5007324;28;20189;-73
2022/09/06 07:41:08;;;;;;;3.03;1.30;;;;;;;17.57;49.98;102052.13;5008211;28;20273;-72
2022/09/06 07:43:34;;;;;;;3.87;1.20;;;;;;;17.47;49.97;102057.19;4990677;28;20231;-74
2022/09/06 07:46:05;;;;;;;4.23;1.50;;;;;;;17.56;49.86;102039.16;4991435;28;20187;-73
2022/09/06 07:48:33;;;;;;;2.97;1.40;;;;;;;17.53;49.54;102046.88;5006586;28;20560;-72
2022/09/06 07:51:06;;;;;;;2.90;1.20;;;;;;;17.69;49.84;102056.56;4990889;28;20202;-75
2022/09/06 07:53:32;;;;;;;4.97;1.33;;;;;;;17.59;49.73;102054.75;4991123;28;20241;-74
2022/09/06 07:55:59;;;;;;;1.70;1.17;;;;;;;17.77;49.32;102050.59;4990115;28;20655;-72
2022/09/06 07:58:24;;;;;;;3.23;1.30;;;;;;;17.76;49.31;102055.75;5008035;28;20636;-72
2022/09/06 08:00:50;;;;;;;2.83;1.60;;;;;;;17.85;49.90;102051.56;5009398;28;20286;-75
2022/09/06 08:03:15;;;;;;;5.50;1.47;;;;;;;17.94;49.59;102042.97;5009130;28;20266;-74
2022/09/06 08:05:41;;;;;;;5.80;1.33;;;;;;;17.91;49.80;102051.59;5008507;28;20194;-73
2022/09/06 08:08:06;;;;;;;5.60;1.30;;;;;;;18.00;49.92;102051.69;4989876;28;20223;-73
2022/09/06 08:10:31;;;;;;;3.27;1.53;;;;;;;17.97;49.89;102045.59;5009236;28;20194;-74
2022/09/06 08:12:57;;;;;;;2.33;1.33;;;;;;;18.05;49.72;102055.19;4991496;28;20214;-74
2022/09/06 08:15:22;;;;;;;5.70;1.43;;;;;;;18.14;50.15;102070.81;4991373;28;20190;-74
2022/09/06 08:17:49;;;;;;;6.00;1.50;;;;;;;18.20;49.47;102076.03;5008993;28;20288;-74
2022/09/06 08:20:14;;;;;;;5.20;1.83;;;;;;;18.17;49.65;102067.38;5009511;28;20623;-72
2022/09/06 08:22:40;;;;;;;3.30;1.30;;;;;;;18.37;49.66;102058.91;5008443;28;20222;-73
2022/09/06 08:25:06;;;;;;;5.00;1.53;;;;;;;18.42;49.74;102062.41;5009107;28;20186;-71
2022/09/06 08:27:32;;;;;;;4.07;1.33;;;;;;;18.38;49.60;102062.41;5009028;28;20187;-74
2022/09/06 08:29:58;;;;;;;2.87;1.33;;;;;;;18.42;49.43;102062.41;4991538;28;20199;-73
2022/09/06 08:32:23;;;;;;;8.07;1.70;;;;;;;18.39;49.80;102058.94;5012870;28;20215;-73
2022/09/06 08:34:49;;;;;;;2.87;1.67;;;;;;;18.31;49.73;102055.38;5013219;28;20249;-74
2022/09/06 08:37:14;;;;;;;5.47;1.87;;;;;;;18.22;50.06;102071.75;5012405;28;20941;-73
2022/09/06 08:39:40;;;;;;;3.43;1.50;;;;;;;18.36;50.11;102070.16;4995416;28;20257;-74
2022/09/06 08:42:07;;;;;;;2.40;1.40;;;;;;;18.47;50.56;102067.66;5012135;28;20209;-74
2022/09/06 08:44:49;;;;;;;3.43;1.40;;;;;;;18.49;50.58;102071.13;5012960;28;20199;-73
2022/09/06 08:47:17;;;;;;;2.13;1.40;;;;;;;18.50;50.23;102076.31;5011391;28;20175;-73
2022/09/06 08:49:46;;;;;;;2.57;1.30;;;;;;;18.28;50.14;102064.00;5012316;28;20193;-73
2022/09/06 08:52:37;;;;;;;6.33;1.37;;;;;;;18.31;50.38;102060.56;5008234;28;20207;-73
2022/09/06 08:55:32;;;;;;;3.53;1.30;;;;;;;18.32;50.07;102065.78;4994110;28;20295;-71
2022/09/06 08:58:04;;;;;;;2.07;1.40;;;;;;;18.35;50.52;102059.78;5011778;28;20218;-72
2022/09/06 09:00:32;;;;;;;3.90;1.70;;;;;;;18.27;50.67;102064.00;5012409;28;20214;-73
2022/09/06 09:03:20;;;;;;;4.23;1.50;;;;;;;18.27;50.60;102064.00;5011716;28;20230;-71
2022/09/06 09:06:39;;;;;;;3.70;1.67;;;;;;;18.31;50.99;102052.78;5001403;28;20192;-73
2022/09/06 09:09:13;;;;;;;4.77;1.47;;;;;;;18.29;51.42;102052.78;4989641;28;20317;-74
2022/09/06 09:11:44;;;;;;;3.23;1.37;;;;;;;18.40;51.12;102058.97;5011743;28;20219;-72
2022/09/06 09:14:34;;;;;;;3.90;1.80;;;;;;;18.38;50.70;102058.06;5009766;28;20183;-73
2022/09/06 09:17:25;;;;;;;4.03;1.50;;;;;;;18.35;50.66;102055.47;5011660;28;20303;-73
2022/09/06 09:19:51;;;;;;;1.70;1.50;;;;;;;18.46;51.62;102059.00;5011250;28;20646;-75
2022/09/06 09:22:18;;;;;;;4.57;1.47;;;;;;;18.39;51.30;102056.34;5006414;28;20281;-74
2022/09/06 09:24:47;;;;;;;4.57;1.47;;;;;;;18.47;50.79;102059.88;5013094;28;20238;-74
2022/09/06 09:27:16;;;;;;;3.57;1.60;;;;;;;18.50;51.19;102058.16;5010968;28;20187;-73
2022/09/06 09:29:53;;;;;;;4.13;1.70;;;;;;;18.53;50.93;102055.59;5012675;28;20232;-73
2022/09/06 09:32:35;;;;;;;2.40;1.67;;;;;;;18.62;51.18;102049.56;5007892;28;20226;-73
2022/09/06 09:35:16;;;;;;;2.30;1.57;;;;;;;18.67;51.15;102034.91;5009324;28;20191;-74
2022/09/06 09:37:42;;;;;;;5.27;1.63;;;;;;;18.63;51.48;102044.41;5011278;28;20584;-73
2022/09/06 09:40:27;;;;;;;1.93;1.37;;;;;;;18.70;51.06;102033.19;5010478;28;20202;-74
2022/09/06 09:42:55;;;;;;;4.97;1.50;;;;;;;18.73;51.13;102029.72;5010636;28;20229;-72
2022/09/06 09:45:24;;;;;;;4.97;1.70;;;;;;;18.72;50.83;102034.06;5008759;28;20655;-75
2022/09/06 09:47:49;;;;;;;4.63;1.97;;;;;;;18.82;50.74;102027.19;5002269;28;20187;-75
2022/09/06 09:50:23;;;;;;;7.97;2.00;;;;;;;18.85;50.50;102028.09;5009434;28;20213;-74
2022/09/06 09:52:48;;;;;;;3.10;1.67;;;;;;;18.84;51.92;102023.72;4996213;28;20773;-74
2022/09/06 09:55:14;;;;;;;2.90;1.67;;;;;;;18.92;50.62;102019.44;5011688;28;20279;-75
2022/09/06 09:57:47;;;;;;;2.13;1.63;;;;;;;19.05;51.11;102012.56;4993200;28;20269;-74
2022/09/06 10:00:13;;;;;;;5.80;1.90;;;;;;;18.98;50.39;102003.88;4990963;28;20183;-73
2022/09/06 10:02:42;;;;;;;3.70;1.80;;;;;;;19.12;50.23;102004.81;5008281;28;20211;-74
2022/09/06 10:05:10;;;;;;;3.10;1.60;;;;;;;19.16;50.69;101995.31;5009454;28;20183;-73
2022/09/06 10:07:49;;;;;;;3.60;1.77;;;;;;;19.34;50.10;101998.84;4992309;28;20194;-72
2022/09/06 10:10:20;;;;;;;6.87;1.97;;;;;;;19.49;50.45;101992.81;5007217;28;20553;-75
2022/09/06 10:12:45;;;;;;;3.87;1.70;;;;;;;19.64;49.71;101985.91;4989684;28;20216;-72
2022/09/06 10:15:31;;;;;;;3.27;1.70;;;;;;;19.80;49.73;101981.59;5009200;28;20195;-73
2022/09/06 10:17:57;;;;;;;3.37;2.03;;;;;;;19.97;49.14;101978.09;5004200;28;20191;-72
2022/09/06 10:20:32;;;;;;;4.23;1.70;;;;;;;19.98;48.36;101976.34;5009269;28;20647;-72
2022/09/06 10:23:11;;;;;;;5.20;1.60;;;;;;;20.07;48.24;101959.00;4988449;28;20211;-73
2022/09/06 10:25:36;;;;;;;2.93;1.90;;;;;;;20.19;47.87;101950.34;4988756;28;20187;-73
2022/09/06 10:28:32;;;;;;;4.63;2.00;;;;;;;20.41;47.54;101944.25;5006297;28;20202;-71
2022/09/06 10:31:10;;;;;;;5.23;1.83;;;;;;;20.51;47.88;101945.94;5004123;28;20191;-73
2022/09/06 10:34:13;;;;;;;4.10;1.73;;;;;;;20.85;47.18;101944.91;4988962;28;20197;-73
2022/09/06 10:37:26;;;;;;;2.83;1.87;;;;;;;21.14;46.67;101950.88;4989266;28;20223;-74
2022/09/06 10:39:58;;;;;;;4.17;1.90;;;;;;;21.19;46.18;101951.72;4957288;28;20244;-73
2022/09/06 10:42:53;;;;;;;2.60;1.73;;;;;;;21.41;45.81;101953.28;4989352;28;20633;-73
2022/09/06 10:45:21;;;;;;;5.13;1.83;;;;;;;21.55;45.50;101959.25;5007526;28;20187;-72
2022/09/06 10:48:08;;;;;;;5.17;2.13;;;;;;;21.36;45.32;101957.66;4988585;28;20211;-74
2022/09/06 10:50:33;;;;;;;3.80;1.93;;;;;;;21.54;46.47;101950.59;5009420;28;20198;-73
2022/09/06 10:53:06;;;;;;;4.23;1.90;;;;;;;21.88;46.47;101952.06;5008055;28;20219;-73
2022/09/06 10:55:32;;;;;;;4.07;2.07;;;;;;;21.82;44.92;101952.13;5006104;28;20214;-73
2022/09/06 10:58:03;;;;;;;5.63;1.90;;;;;;;21.63;45.13;101947.03;5007239;28;20663;-73
2022/09/06 11:00:35;;;;;;;4.37;1.80;;;;;;;21.73;45.34;101952.22;4983645;28;20231;-72
2022/09/06 11:03:10;;;;;;;5.00;2.20;;;;;;;21.66;45.34;101941.81;4985847;28;20214;-74
2022/09/06 11:06:05;;;;;;;3.00;2.10;;;;;;;21.84;45.43;101942.53;5004167;28;20610;-73
2022/09/06 11:08:36;;;;;;;5.60;2.23;;;;;;;22.07;46.09;101934.50;5006048;28;20265;-73
2022/09/06 11:11:15;;;;;;;4.53;2.17;;;;;;;21.90;45.30;101925.97;5006047;28;20194;-74
2022/09/06 11:13:41;;;;;;;2.50;2.23;;;;;;;22.00;45.55;101928.47;5008774;28;20658;-73
2022/09/06 11:16:24;;;;;;;3.97;1.97;;;;;;;22.02;45.69;101936.31;5005200;28;20219;-73
2022/09/06 11:18:55;;;;;;;2.80;1.83;;;;;;;21.78;45.04;101936.50;4972690;28;20370;-73
2022/09/06 11:21:38;;;;;;;5.93;2.30;;;;;;;21.82;45.13;101938.22;5004530;28;20250;-74
2022/09/06 11:24:27;;;;;;;6.13;2.20;;;;;;;21.91;46.25;101935.50;5006989;28;20191;-71
2022/09/06 11:27:14;;;;;;;5.90;2.00;;;;;;;22.04;45.42;101938.00;5007711;28;20190;-73
2022/09/06 11:29:44;;;;;;;3.97;2.03;;;;;;;21.97;45.35;101941.53;5004522;28;20187;-71
2022/09/06 11:32:33;;;;;;;4.50;1.70;;;;;;;22.05;45.56;101938.84;4996976;28;20235;-74
2022/09/06 11:35:02;;;;;;;5.03;2.07;;;;;;;21.96;45.21;101934.59;4971754;28;20231;-72
2022/09/06 11:37:34;;;;;;;7.90;1.93;;;;;;;21.80;45.80;101929.53;4988321;28;20219;-73